Impacts TAF Board INFO
FOR SITUATIONAL AWARENESS. NOT TO BE USED FOR FLIGHT PLANNING PURPOSES.
IDs:

KIAH - Houston/Bush Intl, TX, US

Issued at 1137 UTC 18 Nov 2017
Updated at 1217 UTC 18 Nov 2017
Potential Impact None Slight Moderate High
Time1153Z 18/13Z 18/14Z 18/15Z 18/16Z 18/17Z 18/18Z 18/19Z 18/20Z 18/21Z 18/22Z 18/23Z 19/00Z 19/01Z>>
Type OBS PRVL PRVL PRVL PRVL PRVL PRVL PRVL PRVL PRVL PRVL PRVL PRVL PRVL
VIS 10 >6 >6 >6 >6 >6 >6 >6 >6 >6 >6 >6 >6 >6
CIG 22 20 20 20 35 35 35 35 50 50 50 -- -- --
Cover BKN BKN BKN BKN BKN BKN BKN BKN BKN BKN BKN FEW FEW FEW
FltCat MVFR MVFR MVFR MVFR VFR VFR VFR VFR VFR VFR VFR VFR VFR VFR
WX -- -- -- -- -- -- -- -- -- -- -- -- -- --
WDir 200 200 200 200 240 240 240 240 300 300 300 350 350 350
WSpd 6 7 7 7 11 11 11 11 15 15 15 12 12 12
WGst -- -- -- -- -- -- -- -- 25 25 25 22 22 22

Raw TAF
KIAH 181137Z 1812/1918 20007KT P6SM BKN020
  FM181600 24011KT P6SM BKN035
  FM182000 30015G25KT P6SM BKN050
  FM182300 35012G22KT P6SM FEW250
  FM190800 36011KT P6SM SKC


Raw METAR
KIAH 181153Z 20006KT 10SM BKN022 BKN250 22/21 A2983 RMK AO2 SLP101 T02170206 10222 20217 55003
KIAH 181053Z VRB04KT 10SM BKN020 BKN250 22/21 A2983 RMK AO2 SLP099 T02220206
KIAH 181037Z 19005KT 10SM BKN020 BKN250 22/21 A2983 RMK AO2 T02220206
KIAH 180953Z 20007KT 10SM FEW020 FEW250 22/20 A2982 RMK AO2 SLP099 T02220200

METAR Board
Radar Display
Forecast Discussion

FOR SITUATIONAL AWARENESS. NOT TO BE USED FOR FLIGHT PLANNING PURPOSES.